createdAt,value
2022-11-20T00:00:38.902Z,30.90
2022-11-20T00:01:38.979Z,30.60
2022-11-20T00:02:38.863Z,33.30
2022-11-20T00:03:38.864Z,33.90
2022-11-20T00:04:38.844Z,33.30
2022-11-20T00:05:38.844Z,31.80
2022-11-20T00:06:38.850Z,32.00
2022-11-20T00:07:38.855Z,32.90
2022-11-20T00:08:38.814Z,31.50
2022-11-20T00:09:38.812Z,31.40
2022-11-20T00:10:38.795Z,30.00
2022-11-20T00:11:38.806Z,31.70
2022-11-20T00:12:38.774Z,30.80
2022-11-20T00:13:38.767Z,30.60
2022-11-20T00:14:38.754Z,31.60
2022-11-20T00:15:38.746Z,35.10
2022-11-20T00:16:38.748Z,32.40
2022-11-20T00:17:38.731Z,32.30
2022-11-20T00:18:38.717Z,31.00
2022-11-20T00:19:38.718Z,34.50
2022-11-20T00:20:38.697Z,35.90
2022-11-20T00:21:38.714Z,34.20
2022-11-20T00:22:38.678Z,34.40
2022-11-20T00:23:38.696Z,35.80
2022-11-20T00:24:42.843Z,35.00
2022-11-20T00:25:38.667Z,35.50
2022-11-20T00:26:38.650Z,34.80
2022-11-20T00:27:38.636Z,34.00
2022-11-20T00:28:38.625Z,33.50
2022-11-20T00:29:38.618Z,40.10
2022-11-20T00:30:38.605Z,40.80
2022-11-20T00:31:38.609Z,37.70
2022-11-20T00:32:38.579Z,38.00
2022-11-20T00:33:38.569Z,35.80
2022-11-20T00:34:38.560Z,37.50
2022-11-20T00:35:38.557Z,37.20
2022-11-20T00:36:38.559Z,36.50
2022-11-20T00:37:38.540Z,36.10
2022-11-20T00:38:38.527Z,37.70
2022-11-20T00:39:38.517Z,40.40
2022-11-20T00:40:38.502Z,40.10
2022-11-20T00:41:38.519Z,42.10
2022-11-20T00:42:38.491Z,42.20
2022-11-20T00:43:38.490Z,46.20
2022-11-20T00:44:38.461Z,44.70
2022-11-20T00:45:38.461Z,42.90
2022-11-20T00:46:38.473Z,43.00
2022-11-20T00:47:38.441Z,42.90
2022-11-20T00:48:38.428Z,45.30
2022-11-20T00:49:38.424Z,44.60
2022-11-20T00:50:38.414Z,44.60
2022-11-20T00:51:38.421Z,44.90
2022-11-20T00:52:38.391Z,47.20
2022-11-20T00:53:38.384Z,50.30
2022-11-20T00:54:38.373Z,46.10
2022-11-20T00:55:38.381Z,45.80
2022-11-20T00:56:38.371Z,45.10
2022-11-20T00:57:38.353Z,44.40
2022-11-20T00:58:38.332Z,43.10
2022-11-20T00:59:38.323Z,43.20
2022-11-20T01:00:38.425Z,44.40
2022-11-20T01:01:38.446Z,47.40
2022-11-20T01:02:38.294Z,46.90
2022-11-20T01:03:38.296Z,48.30
2022-11-20T01:04:38.285Z,46.20
2022-11-20T01:05:38.273Z,44.10
2022-11-20T01:06:38.277Z,40.90
2022-11-20T01:07:38.284Z,39.50
2022-11-20T01:08:38.235Z,38.10
2022-11-20T01:09:38.235Z,38.40
2022-11-20T01:10:38.221Z,36.40
2022-11-20T01:11:38.237Z,38.00
2022-11-20T01:12:38.204Z,37.10
2022-11-20T01:13:38.197Z,35.00
2022-11-20T01:14:38.178Z,35.50
2022-11-20T01:15:38.175Z,36.20
2022-11-20T01:16:38.183Z,37.70
2022-11-20T01:17:38.158Z,36.10
2022-11-20T01:18:38.137Z,35.90
2022-11-20T01:19:38.137Z,36.00
2022-11-20T01:20:38.117Z,35.00
2022-11-20T01:21:38.136Z,37.10
2022-11-20T01:22:38.105Z,34.70
2022-11-20T01:23:38.099Z,34.00
2022-11-20T01:24:38.089Z,34.00
2022-11-20T01:25:38.087Z,33.80
2022-11-20T01:26:38.094Z,33.80
2022-11-20T01:27:38.060Z,32.50
2022-11-20T01:28:38.049Z,32.40
2022-11-20T01:29:38.040Z,32.10
2022-11-20T01:30:38.042Z,32.80
2022-11-20T01:31:38.047Z,33.10
2022-11-20T01:32:38.009Z,31.70
2022-11-20T01:33:38.011Z,31.70
2022-11-20T01:34:37.999Z,32.20
2022-11-20T01:35:37.987Z,32.00
2022-11-20T01:36:37.989Z,30.30
2022-11-20T01:37:37.968Z,32.00
2022-11-20T01:38:37.952Z,31.90
2022-11-20T01:39:37.951Z,32.00
2022-11-20T01:40:37.941Z,31.70
2022-11-20T01:41:37.970Z,30.20
2022-11-20T01:42:37.924Z,32.00
2022-11-20T01:43:37.923Z,32.40
2022-11-20T01:44:37.901Z,31.40
2022-11-20T01:45:37.907Z,31.50
2022-11-20T01:46:37.902Z,28.60
2022-11-20T01:47:37.871Z,30.50
2022-11-20T01:48:37.861Z,28.90
2022-11-20T01:49:37.853Z,28.90
2022-11-20T01:50:37.842Z,29.00
2022-11-20T01:51:37.851Z,29.30
2022-11-20T01:52:37.821Z,28.20
2022-11-20T01:53:37.822Z,29.30
2022-11-20T01:54:37.802Z,28.70
2022-11-20T01:55:37.803Z,28.60
2022-11-20T01:56:37.801Z,29.90
2022-11-20T01:57:37.783Z,28.50
2022-11-20T01:58:37.783Z,28.60
2022-11-20T01:59:37.774Z,28.30
2022-11-20T02:00:37.744Z,28.70
2022-11-20T02:01:37.797Z,27.60
2022-11-20T02:02:37.724Z,29.10
2022-11-20T02:03:37.732Z,28.10
2022-11-20T02:04:37.713Z,27.70
2022-11-20T02:05:37.713Z,28.40
2022-11-20T02:06:37.684Z,28.70
2022-11-20T02:07:37.744Z,27.40
2022-11-20T02:08:37.684Z,27.40
2022-11-20T02:09:37.676Z,27.90
2022-11-20T02:10:37.646Z,27.10
2022-11-20T02:11:37.646Z,28.10
2022-11-20T02:12:37.656Z,27.30
2022-11-20T02:13:37.625Z,27.30
2022-11-20T02:14:37.615Z,27.50
2022-11-20T02:15:37.605Z,27.70
2022-11-20T02:16:37.594Z,26.70
2022-11-20T02:17:37.604Z,26.70
2022-11-20T02:18:37.567Z,27.50
2022-11-20T02:19:37.578Z,27.60
2022-11-20T02:20:37.557Z,30.20
2022-11-20T02:21:37.548Z,29.60
2022-11-20T02:22:37.557Z,29.80
2022-11-20T02:23:37.538Z,29.50
2022-11-20T02:24:37.518Z,28.80
2022-11-20T02:25:37.528Z,30.00
2022-11-20T02:26:37.497Z,27.90
2022-11-20T02:27:37.507Z,28.00
2022-11-20T02:28:37.479Z,27.90
2022-11-20T02:29:37.477Z,28.00
2022-11-20T02:30:37.458Z,27.00
2022-11-20T02:31:37.459Z,27.30
2022-11-20T02:32:37.459Z,25.60
2022-11-20T02:33:37.438Z,27.30
2022-11-20T02:34:37.420Z,27.50
2022-11-20T02:35:37.419Z,28.50
2022-11-20T02:36:37.417Z,28.30
2022-11-20T02:37:37.429Z,29.40
2022-11-20T02:38:37.391Z,29.20
2022-11-20T02:39:37.370Z,27.80
2022-11-20T02:40:37.371Z,26.70
2022-11-20T02:41:37.350Z,26.70
2022-11-20T02:42:37.368Z,26.50
2022-11-20T02:43:37.340Z,26.70
2022-11-20T02:44:37.334Z,28.10
2022-11-20T02:45:37.323Z,28.50
2022-11-20T02:46:37.311Z,27.00
2022-11-20T02:47:37.312Z,28.90
2022-11-20T02:48:37.302Z,27.40
2022-11-20T02:49:37.281Z,27.00
2022-11-20T02:50:37.280Z,27.10
2022-11-20T02:51:37.263Z,26.90
2022-11-20T02:52:37.272Z,28.00
2022-11-20T02:53:37.244Z,26.80
2022-11-20T02:54:37.254Z,27.40
2022-11-20T02:55:37.224Z,26.00
2022-11-20T02:56:37.224Z,27.80
2022-11-20T02:57:37.225Z,26.70
2022-11-20T02:58:37.195Z,26.80
2022-11-20T02:59:37.183Z,27.60
2022-11-20T03:00:37.181Z,26.90
2022-11-20T03:01:37.244Z,27.50
2022-11-20T03:02:37.177Z,26.30
2022-11-20T03:03:37.154Z,27.20
2022-11-20T03:04:37.146Z,26.80
2022-11-20T03:05:37.125Z,27.80
2022-11-20T03:06:37.122Z,27.40
2022-11-20T03:07:37.162Z,26.50
2022-11-20T03:08:37.117Z,26.20
2022-11-20T03:09:37.097Z,26.10
2022-11-20T03:10:37.087Z,26.80
2022-11-20T03:11:37.074Z,26.30
2022-11-20T03:12:37.084Z,27.20
2022-11-20T03:13:37.055Z,25.60
2022-11-20T03:14:37.048Z,25.40
2022-11-20T03:15:37.035Z,26.50
2022-11-20T03:16:37.026Z,26.80
2022-11-20T03:17:37.026Z,26.70
2022-11-20T03:18:37.007Z,27.00
2022-11-20T03:19:36.997Z,25.20
2022-11-20T03:20:36.989Z,27.10
2022-11-20T03:21:36.976Z,26.00
2022-11-20T03:22:36.991Z,28.10
2022-11-20T03:23:36.958Z,26.30
2022-11-20T03:24:36.947Z,26.20
2022-11-20T03:25:36.947Z,27.10
2022-11-20T03:26:36.927Z,26.90
2022-11-20T03:27:36.939Z,26.40
2022-11-20T03:28:36.917Z,26.40
2022-11-20T03:29:36.899Z,26.70
2022-11-20T03:30:36.891Z,26.50
2022-11-20T03:31:36.889Z,26.40
2022-11-20T03:32:36.900Z,26.40
2022-11-20T03:33:36.860Z,25.30
2022-11-20T03:34:36.859Z,26.20
2022-11-20T03:35:36.839Z,26.20
2022-11-20T03:36:36.838Z,27.20
2022-11-20T03:37:36.840Z,26.00
2022-11-20T03:38:36.832Z,24.60
2022-11-20T03:39:36.809Z,25.60
2022-11-20T03:40:36.809Z,26.20
2022-11-20T03:41:36.781Z,25.60
2022-11-20T03:42:36.799Z,26.00
2022-11-20T03:43:36.772Z,24.50
2022-11-20T03:44:36.768Z,25.60
2022-11-20T03:45:36.756Z,24.30
2022-11-20T03:46:36.742Z,24.80
2022-11-20T03:47:36.751Z,25.20
2022-11-20T03:48:36.721Z,24.40
2022-11-20T03:49:36.713Z,24.60
2022-11-20T03:50:36.702Z,24.90
2022-11-20T03:51:36.695Z,24.40
2022-11-20T03:52:36.713Z,24.70
2022-11-20T03:53:36.672Z,25.40
2022-11-20T03:54:36.671Z,25.40
2022-11-20T03:55:36.653Z,24.40
2022-11-20T03:56:36.649Z,25.80
2022-11-20T03:57:36.653Z,27.00
2022-11-20T03:58:36.632Z,25.50
2022-11-20T03:59:36.613Z,26.10
2022-11-20T04:00:36.609Z,25.70
2022-11-20T04:01:36.637Z,27.50
2022-11-20T04:02:36.603Z,27.20
2022-11-20T04:03:36.574Z,26.50
2022-11-20T04:04:36.572Z,27.40
2022-11-20T04:05:36.563Z,27.40
2022-11-20T04:06:36.554Z,26.60
2022-11-20T04:07:36.622Z,28.00
2022-11-20T04:08:36.553Z,28.90
2022-11-20T04:09:36.525Z,28.40
2022-11-20T04:10:36.514Z,29.80
2022-11-20T04:11:36.496Z,33.30
2022-11-20T04:12:36.515Z,33.00
2022-11-20T04:13:36.476Z,31.30
2022-11-20T04:14:36.475Z,31.40
2022-11-20T04:15:38.518Z,32.80
2022-11-20T04:16:36.466Z,31.40
2022-11-20T04:17:36.458Z,33.00
2022-11-20T04:18:36.446Z,31.50
2022-11-20T04:19:36.427Z,30.20
2022-11-20T04:20:36.419Z,31.00
2022-11-20T04:21:36.407Z,33.20
2022-11-20T04:22:36.418Z,33.50
2022-11-20T04:23:36.386Z,33.40
2022-11-20T04:24:36.388Z,31.50
2022-11-20T04:25:36.367Z,32.60
2022-11-20T04:26:36.368Z,30.50
2022-11-20T04:27:36.368Z,30.20
2022-11-20T04:28:36.340Z,30.40
2022-11-20T04:29:36.331Z,30.80
2022-11-20T04:30:36.338Z,30.60
2022-11-20T04:31:36.308Z,30.80
2022-11-20T04:32:36.326Z,28.60
2022-11-20T04:33:36.292Z,27.90
2022-11-20T04:34:36.287Z,30.10
2022-11-20T04:35:36.269Z,29.00
2022-11-20T04:36:36.267Z,29.70
2022-11-20T04:37:36.274Z,29.70
2022-11-20T04:38:36.247Z,29.60
2022-11-20T04:39:36.241Z,29.40
2022-11-20T04:40:36.230Z,29.40
2022-11-20T04:41:36.213Z,30.00
2022-11-20T04:42:36.229Z,29.40
2022-11-20T04:43:36.194Z,30.30
2022-11-20T04:44:36.215Z,30.70
2022-11-20T04:45:36.172Z,30.20
2022-11-20T04:46:36.172Z,31.40
2022-11-20T04:47:36.180Z,31.50
2022-11-20T04:48:36.151Z,32.80
2022-11-20T04:49:36.183Z,33.40
2022-11-20T04:50:36.131Z,35.10
2022-11-20T04:51:36.119Z,34.80
2022-11-20T04:52:36.133Z,36.20
2022-11-20T04:53:36.101Z,35.40
2022-11-20T04:54:36.093Z,39.10
2022-11-20T04:55:36.085Z,38.30
2022-11-20T04:56:36.072Z,38.20
2022-11-20T04:57:36.091Z,42.20
2022-11-20T04:58:36.059Z,42.40
2022-11-20T04:59:36.043Z,42.70
2022-11-20T05:00:36.044Z,41.80
2022-11-20T05:01:36.082Z,41.90
2022-11-20T05:02:36.033Z,41.30
2022-11-20T05:03:41.036Z,40.40
2022-11-20T05:04:37.003Z,39.20
2022-11-20T05:05:35.988Z,38.20
2022-11-20T05:06:35.982Z,38.90
2022-11-20T05:07:36.010Z,38.00
2022-11-20T05:08:35.964Z,38.90
2022-11-20T05:09:35.955Z,37.80
2022-11-20T05:10:35.945Z,35.50
2022-11-20T05:11:35.934Z,36.80
2022-11-20T05:12:35.944Z,40.40
2022-11-20T05:13:35.912Z,44.50
2022-11-20T05:14:35.904Z,44.30
2022-11-20T05:15:35.896Z,42.80
2022-11-20T05:16:35.894Z,42.40
2022-11-20T05:17:35.895Z,41.10
2022-11-20T05:18:35.872Z,39.20
2022-11-20T05:19:35.846Z,40.40
2022-11-20T05:20:35.847Z,41.90
2022-11-20T05:21:35.837Z,41.10
2022-11-20T05:22:35.836Z,41.00
2022-11-20T05:23:35.838Z,40.60
2022-11-20T05:24:35.808Z,40.40
2022-11-20T05:25:35.796Z,40.40
2022-11-20T05:26:35.795Z,40.40
2022-11-20T05:27:35.778Z,40.60
2022-11-20T05:28:35.794Z,40.90
2022-11-20T05:29:35.758Z,40.10
2022-11-20T05:30:35.770Z,40.30
2022-11-20T05:31:35.739Z,39.30
2022-11-20T05:32:35.739Z,38.20
2022-11-20T05:33:35.742Z,37.00
2022-11-20T05:34:35.718Z,37.50
2022-11-20T05:35:35.701Z,37.10
2022-11-20T05:36:35.699Z,37.10
2022-11-20T05:37:35.679Z,37.40
2022-11-20T05:38:35.696Z,35.60
2022-11-20T05:39:35.669Z,37.80
2022-11-20T05:40:35.660Z,36.50
2022-11-20T05:41:35.640Z,38.10
2022-11-20T05:42:35.648Z,36.80
2022-11-20T05:43:35.641Z,38.10
2022-11-20T05:44:35.620Z,37.10
2022-11-20T05:45:35.610Z,37.50
2022-11-20T05:46:35.605Z,36.00
2022-11-20T05:47:35.590Z,35.20
2022-11-20T05:48:35.611Z,35.90
2022-11-20T05:49:35.568Z,36.20
2022-11-20T05:50:35.562Z,37.80
2022-11-20T05:51:35.551Z,36.60
2022-11-20T05:52:35.544Z,35.80
2022-11-20T05:53:35.542Z,34.70
2022-11-20T05:54:35.531Z,36.90
2022-11-20T05:55:35.512Z,37.00
2022-11-20T05:56:35.514Z,35.10
2022-11-20T05:57:35.492Z,35.20
2022-11-20T05:58:35.505Z,36.70
2022-11-20T05:59:35.473Z,35.40
2022-11-20T06:00:35.471Z,37.00
2022-11-20T06:01:35.457Z,37.00
2022-11-20T06:02:35.486Z,35.80
2022-11-20T06:03:35.454Z,38.30
2022-11-20T06:04:35.434Z,39.20
2022-11-20T06:05:35.421Z,37.90
2022-11-20T06:06:35.414Z,38.90
2022-11-20T06:07:35.479Z,39.80
2022-11-20T06:08:35.413Z,41.30
2022-11-20T06:09:35.381Z,41.20
2022-11-20T06:10:35.373Z,41.00
2022-11-20T06:11:35.363Z,40.70
2022-11-20T06:12:35.360Z,43.00
2022-11-20T06:13:40.621Z,42.80
2022-11-20T06:14:36.336Z,44.50
2022-11-20T06:15:35.322Z,42.20
2022-11-20T06:16:35.324Z,41.20
2022-11-20T06:17:35.306Z,43.90
2022-11-20T06:18:35.326Z,43.10
2022-11-20T06:19:35.293Z,43.20
2022-11-20T06:20:40.777Z,43.30
2022-11-20T06:21:36.273Z,44.50
2022-11-20T06:22:35.264Z,44.10
2022-11-20T06:23:35.225Z,43.50
2022-11-20T06:24:35.246Z,44.60
2022-11-20T06:25:35.245Z,43.60
2022-11-20T06:26:35.218Z,45.00
2022-11-20T06:27:35.208Z,46.00
2022-11-20T06:28:35.220Z,44.00
2022-11-20T06:29:35.188Z,45.50
2022-11-20T06:30:35.189Z,45.40
2022-11-20T06:31:35.189Z,43.60
2022-11-20T06:32:35.159Z,43.90
2022-11-20T06:33:35.172Z,45.00
2022-11-20T06:34:35.111Z,43.20
2022-11-20T06:35:35.078Z,42.10
2022-11-20T06:36:35.078Z,45.30
2022-11-20T06:37:35.059Z,45.10
2022-11-20T06:38:35.078Z,43.10
2022-11-20T06:39:35.045Z,42.80
2022-11-20T06:40:35.037Z,43.00
2022-11-20T06:41:35.018Z,41.70
2022-11-20T06:42:35.017Z,42.70
2022-11-20T06:43:35.040Z,42.10
2022-11-20T06:44:34.992Z,43.50
2022-11-20T06:45:34.981Z,42.40
2022-11-20T06:46:34.979Z,42.50
2022-11-20T06:47:34.969Z,41.30
2022-11-20T06:48:34.971Z,41.20
2022-11-20T06:49:34.942Z,42.30
2022-11-20T06:50:34.939Z,41.90
2022-11-20T06:51:34.923Z,40.70
2022-11-20T06:52:38.245Z,41.00
2022-11-20T06:53:35.921Z,43.00
2022-11-20T06:54:34.901Z,46.90
2022-11-20T06:55:34.883Z,45.60
2022-11-20T06:56:34.875Z,45.30
2022-11-20T06:57:34.873Z,45.10
2022-11-20T06:58:34.873Z,45.90
2022-11-20T06:59:34.853Z,46.10
2022-11-20T07:00:34.848Z,43.30
2022-11-20T07:01:34.833Z,44.80
2022-11-20T07:02:34.814Z,43.70
2022-11-20T07:03:34.834Z,44.90
2022-11-20T07:04:34.794Z,46.30
2022-11-20T07:05:34.795Z,44.60
2022-11-20T07:06:34.774Z,45.60
2022-11-20T07:07:34.842Z,43.10
2022-11-20T07:08:34.796Z,47.20
2022-11-20T07:09:34.754Z,46.50
2022-11-20T07:10:34.735Z,43.00
2022-11-20T07:11:34.735Z,43.40
2022-11-20T07:12:34.716Z,45.20
2022-11-20T07:13:34.734Z,44.70
2022-11-20T07:14:34.696Z,44.20
2022-11-20T07:15:34.697Z,44.70
2022-11-20T07:16:34.688Z,42.70
2022-11-20T07:17:34.686Z,43.90
2022-11-20T07:18:34.687Z,42.80
2022-11-20T07:19:34.657Z,42.30
2022-11-20T07:20:34.654Z,44.10
2022-11-20T07:21:34.637Z,46.20
2022-11-20T07:22:34.625Z,46.70
2022-11-20T07:23:34.638Z,46.40
2022-11-20T07:24:34.625Z,49.80
2022-11-20T07:25:34.606Z,50.70
2022-11-20T07:26:34.595Z,48.10
2022-11-20T07:27:34.578Z,48.20
2022-11-20T07:28:34.588Z,50.30
2022-11-20T07:29:34.566Z,48.00
2022-11-20T07:30:34.555Z,48.20
2022-11-20T07:31:34.547Z,48.80
2022-11-20T07:32:34.527Z,46.20
2022-11-20T07:33:34.539Z,47.70
2022-11-20T07:34:34.508Z,47.40
2022-11-20T07:35:34.500Z,47.60
2022-11-20T07:36:34.491Z,48.50
2022-11-20T07:37:34.479Z,49.50
2022-11-20T07:38:34.501Z,50.50
2022-11-20T07:39:34.479Z,50.60
2022-11-20T07:40:34.448Z,50.40
2022-11-20T07:41:34.444Z,48.60
2022-11-20T07:42:34.430Z,48.40
2022-11-20T07:43:39.807Z,46.90
2022-11-20T07:44:35.409Z,45.80
2022-11-20T07:45:34.408Z,46.80
2022-11-20T07:46:34.392Z,47.00
2022-11-20T07:47:34.385Z,45.60
2022-11-20T07:48:34.416Z,47.80
2022-11-20T07:49:34.371Z,55.00
2022-11-20T07:50:34.353Z,53.80
2022-11-20T07:51:34.342Z,50.60
2022-11-20T07:52:34.331Z,47.40
2022-11-20T07:53:34.349Z,46.40
2022-11-20T07:54:34.328Z,47.20
2022-11-20T07:55:34.313Z,47.10
2022-11-20T07:56:34.292Z,47.90
2022-11-20T07:57:34.284Z,46.40
2022-11-20T07:58:34.305Z,46.50
2022-11-20T07:59:34.263Z,45.00
2022-11-20T08:00:34.317Z,45.90
2022-11-20T08:01:34.250Z,46.30
2022-11-20T08:02:34.237Z,47.60
2022-11-20T08:03:34.252Z,47.20
2022-11-20T08:04:34.214Z,47.30
2022-11-20T08:05:34.212Z,47.20
2022-11-20T08:06:34.195Z,46.90
2022-11-20T08:07:34.226Z,48.00
2022-11-20T08:08:36.071Z,46.90
2022-11-20T08:09:34.185Z,48.30
2022-11-20T08:10:34.157Z,48.00
2022-11-20T08:11:34.161Z,49.50
2022-11-20T08:12:34.169Z,49.70
2022-11-20T08:13:34.139Z,47.20
2022-11-20T08:14:34.136Z,49.70
2022-11-20T08:15:34.124Z,48.70
2022-11-20T08:16:34.110Z,50.30
2022-11-20T08:17:34.089Z,50.70
2022-11-20T08:18:34.097Z,48.50
2022-11-20T08:19:34.093Z,49.70
2022-11-20T08:20:34.063Z,50.00
2022-11-20T08:21:38.125Z,50.50
2022-11-20T08:22:34.038Z,52.40
2022-11-20T08:23:34.045Z,50.30
2022-11-20T08:24:34.057Z,50.70
2022-11-20T08:25:34.022Z,52.40
2022-11-20T08:26:34.026Z,50.80
2022-11-20T08:27:33.997Z,49.40
2022-11-20T08:28:33.991Z,50.00
2022-11-20T08:29:33.998Z,47.50
2022-11-20T08:30:33.980Z,46.40
2022-11-20T08:31:33.962Z,47.80
2022-11-20T08:32:33.942Z,47.30
2022-11-20T08:33:33.954Z,46.60
2022-11-20T08:34:33.971Z,44.90
2022-11-20T08:35:33.929Z,45.00
2022-11-20T08:36:33.901Z,47.90
2022-11-20T08:37:33.900Z,48.20
2022-11-20T08:38:33.890Z,48.20
2022-11-20T08:39:33.910Z,46.10
2022-11-20T08:40:33.870Z,47.50
2022-11-20T08:41:33.869Z,46.80
2022-11-20T08:42:33.852Z,46.80
2022-11-20T08:43:33.842Z,46.10
2022-11-20T08:44:33.842Z,44.90
2022-11-20T08:45:35.280Z,42.10
2022-11-20T08:46:33.814Z,42.20
2022-11-20T08:47:33.802Z,45.00
2022-11-20T08:48:33.783Z,44.30
2022-11-20T08:49:33.804Z,43.90
2022-11-20T08:50:34.200Z,47.60
2022-11-20T08:51:33.768Z,47.50
2022-11-20T08:52:38.472Z,46.50
2022-11-20T08:53:34.743Z,46.40
2022-11-20T08:54:33.752Z,47.70
2022-11-20T08:55:33.726Z,47.90
2022-11-20T08:56:33.734Z,48.30
2022-11-20T08:57:33.712Z,49.90
2022-11-20T08:58:54.893Z,47.80
2022-11-20T09:00:04.446Z,48.60
2022-11-20T09:00:34.716Z,48.30
2022-11-20T09:01:33.665Z,51.20
2022-11-20T09:02:33.665Z,49.10
2022-11-20T09:03:33.655Z,49.60
2022-11-20T09:04:33.654Z,48.90
2022-11-20T09:05:33.626Z,50.40
2022-11-20T09:06:33.616Z,49.70
2022-11-20T09:07:33.713Z,47.40
2022-11-20T09:08:33.597Z,46.60
2022-11-20T09:09:33.626Z,45.10
2022-11-20T09:10:33.601Z,47.10
2022-11-20T09:11:33.569Z,46.90
2022-11-20T09:12:34.498Z,46.80
2022-11-20T09:13:33.555Z,48.60
2022-11-20T09:14:33.549Z,54.00
2022-11-20T09:15:33.549Z,51.50
2022-11-20T09:16:33.528Z,50.30
2022-11-20T09:17:33.519Z,49.00
2022-11-20T09:18:33.509Z,48.60
2022-11-20T09:19:36.080Z,48.30
2022-11-20T09:20:33.478Z,47.80
2022-11-20T09:21:33.477Z,46.60
2022-11-20T09:22:33.460Z,47.30
2022-11-20T09:23:33.458Z,48.50
2022-11-20T09:24:33.459Z,45.30
2022-11-20T09:25:33.430Z,48.60
2022-11-20T09:26:33.420Z,46.40
2022-11-20T09:27:33.419Z,48.70
2022-11-20T09:28:33.420Z,45.30
2022-11-20T09:29:33.419Z,42.70
2022-11-20T09:30:33.398Z,44.30
2022-11-20T09:31:33.382Z,46.10
2022-11-20T09:32:33.362Z,45.50
2022-11-20T09:33:33.371Z,45.70
2022-11-20T09:34:33.362Z,44.60
2022-11-20T09:35:33.340Z,43.80
2022-11-20T09:36:33.331Z,45.70
2022-11-20T09:37:33.330Z,45.00
2022-11-20T09:38:33.368Z,45.70
2022-11-20T09:39:33.322Z,44.10
2022-11-20T09:40:33.282Z,43.80
2022-11-20T09:41:33.273Z,44.10
2022-11-20T09:42:33.262Z,45.50
2022-11-20T09:43:35.210Z,45.60
2022-11-20T09:44:33.263Z,47.60
2022-11-20T09:45:33.247Z,47.10
2022-11-20T09:46:33.225Z,47.50
2022-11-20T09:47:33.213Z,48.60
2022-11-20T09:48:33.204Z,46.80
2022-11-20T09:49:33.727Z,51.40
2022-11-20T09:50:33.184Z,50.30
2022-11-20T09:51:33.196Z,49.70
2022-11-20T09:52:33.183Z,49.30
2022-11-20T09:53:33.162Z,47.10
2022-11-20T09:54:33.165Z,47.40
2022-11-20T09:55:33.147Z,45.50
2022-11-20T09:56:33.129Z,45.00
2022-11-20T09:57:33.125Z,43.40
2022-11-20T09:58:33.109Z,45.60
2022-11-20T09:59:33.117Z,44.80
2022-11-20T10:00:33.109Z,44.60
2022-11-20T10:01:33.087Z,46.30
2022-11-20T10:02:33.069Z,45.10
2022-11-20T10:03:33.067Z,47.50
2022-11-20T10:04:36.765Z,46.20
2022-11-20T10:05:34.056Z,44.70
2022-11-20T10:06:33.040Z,45.10
2022-11-20T10:07:33.494Z,47.10
2022-11-20T10:08:33.009Z,46.30
2022-11-20T10:09:33.017Z,46.40
2022-11-20T10:10:32.995Z,46.10
2022-11-20T10:11:33.008Z,47.30
2022-11-20T10:12:32.977Z,49.00
2022-11-20T10:13:32.971Z,50.00
2022-11-20T10:14:32.980Z,48.70
2022-11-20T10:15:32.965Z,49.90
2022-11-20T10:16:37.991Z,48.80
2022-11-20T10:17:33.930Z,50.20
2022-11-20T10:18:32.917Z,49.70
2022-11-20T10:19:32.927Z,51.40
2022-11-20T10:20:32.947Z,50.50
2022-11-20T10:21:32.908Z,52.40
2022-11-20T10:22:32.870Z,50.90
2022-11-20T10:23:32.879Z,49.50
2022-11-20T10:24:32.882Z,47.60
2022-11-20T10:25:32.860Z,48.30
2022-11-20T10:26:32.848Z,48.40
2022-11-20T10:27:32.831Z,48.60
2022-11-20T10:28:32.822Z,48.20
2022-11-20T10:29:32.853Z,49.20
2022-11-20T10:30:32.792Z,49.00
2022-11-20T10:31:32.794Z,48.70
2022-11-20T10:32:32.789Z,47.10
2022-11-20T10:33:50.018Z,48.90
2022-11-20T10:34:33.774Z,48.40
2022-11-20T10:35:32.754Z,48.10
2022-11-20T10:36:32.734Z,47.00
2022-11-20T10:37:32.733Z,43.50
2022-11-20T10:38:32.722Z,43.70
2022-11-20T10:39:32.735Z,43.50
2022-11-20T10:40:32.695Z,48.20
2022-11-20T10:41:35.850Z,50.70
2022-11-20T10:42:32.686Z,52.20
2022-11-20T10:43:32.674Z,52.10
2022-11-20T10:44:32.686Z,53.60
2022-11-20T10:45:32.657Z,50.10
2022-11-20T10:46:32.645Z,49.20
2022-11-20T10:47:32.636Z,46.80
2022-11-20T10:48:32.622Z,45.20
2022-11-20T10:49:32.636Z,46.90
2022-11-20T10:50:32.604Z,49.20
2022-11-20T10:51:32.599Z,48.40
2022-11-20T10:52:32.586Z,47.60
2022-11-20T10:53:32.576Z,46.00
2022-11-20T10:54:32.586Z,46.00
2022-11-20T10:55:32.561Z,49.10
2022-11-20T10:56:32.548Z,48.80
2022-11-20T10:57:32.545Z,48.80
2022-11-20T10:58:32.529Z,51.70
2022-11-20T10:59:32.537Z,49.20
2022-11-20T11:00:32.520Z,48.50
2022-11-20T11:01:32.528Z,49.10
2022-11-20T11:02:32.488Z,51.20
2022-11-20T11:03:32.489Z,46.50
2022-11-20T11:04:32.488Z,46.10
2022-11-20T11:05:32.467Z,45.90
2022-11-20T11:06:32.449Z,49.40
2022-11-20T11:07:32.482Z,50.50
2022-11-20T11:08:32.428Z,51.20
2022-11-20T11:09:32.447Z,52.20
2022-11-20T11:10:32.409Z,51.50
2022-11-20T11:11:32.399Z,50.10
2022-11-20T11:12:32.407Z,53.10
2022-11-20T11:13:32.379Z,51.30
2022-11-20T11:14:32.399Z,53.80
2022-11-20T11:15:32.363Z,53.30
2022-11-20T11:16:32.363Z,55.40
2022-11-20T11:17:32.344Z,53.00
2022-11-20T11:18:32.350Z,54.90
2022-11-20T11:19:32.340Z,54.80
2022-11-20T11:20:32.312Z,55.20
2022-11-20T11:21:32.301Z,56.60
2022-11-20T11:22:32.311Z,58.40
2022-11-20T11:23:32.283Z,59.40
2022-11-20T11:24:42.253Z,58.90
2022-11-20T11:25:33.262Z,58.30
2022-11-20T11:26:32.262Z,57.60
2022-11-20T11:27:32.244Z,58.40
2022-11-20T11:28:32.241Z,58.70
2022-11-20T11:29:32.250Z,57.60
2022-11-20T11:30:32.224Z,56.30
2022-11-20T11:31:32.205Z,57.50
2022-11-20T11:32:32.204Z,56.80
2022-11-20T11:33:32.200Z,56.50
2022-11-20T11:34:32.182Z,57.30
2022-11-20T11:35:32.182Z,58.40
2022-11-20T11:36:32.156Z,57.20
2022-11-20T11:37:32.145Z,57.50
2022-11-20T11:38:32.144Z,58.50
2022-11-20T11:39:32.141Z,59.50
2022-11-20T11:40:32.136Z,59.10
2022-11-20T11:41:32.106Z,54.90
2022-11-20T11:42:32.105Z,59.30
2022-11-20T11:43:36.781Z,56.70
2022-11-20T11:44:33.085Z,55.80
2022-11-20T11:45:32.092Z,56.50
2022-11-20T11:46:32.058Z,56.20
2022-11-20T11:47:32.047Z,58.00
2022-11-20T11:48:32.045Z,57.40
2022-11-20T11:49:32.028Z,58.40
2022-11-20T11:50:32.049Z,57.70
2022-11-20T11:51:32.008Z,57.80
2022-11-20T11:52:32.008Z,57.80
2022-11-20T11:53:31.989Z,59.70
2022-11-20T11:54:31.989Z,57.90
2022-11-20T11:55:32.000Z,54.10
2022-11-20T11:56:31.968Z,50.10
2022-11-20T11:57:31.953Z,48.50
2022-11-20T11:58:31.950Z,49.60
2022-11-20T11:59:31.931Z,48.70
2022-11-20T12:00:31.950Z,48.10
2022-11-20T12:01:32.946Z,47.30
2022-11-20T12:02:31.945Z,47.70
2022-11-20T12:03:31.899Z,49.70
2022-11-20T12:04:31.892Z,48.40
2022-11-20T12:05:31.894Z,48.70
2022-11-20T12:06:31.868Z,49.10
2022-11-20T12:07:45.997Z,48.80
2022-11-20T12:08:32.870Z,49.50
2022-11-20T12:09:31.842Z,49.80
2022-11-20T12:10:31.850Z,50.50
2022-11-20T12:11:31.813Z,50.80
2022-11-20T12:12:31.812Z,47.80
2022-11-20T12:13:31.821Z,48.90
2022-11-20T12:14:31.791Z,50.30
2022-11-20T12:15:31.795Z,52.00
2022-11-20T12:16:31.764Z,54.60
2022-11-20T12:17:31.763Z,53.00
2022-11-20T12:18:31.753Z,47.70
2022-11-20T12:19:31.737Z,49.00
2022-11-20T12:20:31.745Z,51.60
2022-11-20T12:21:31.718Z,52.20
2022-11-20T12:22:31.727Z,53.70
2022-11-20T12:23:31.695Z,51.80
2022-11-20T12:24:31.696Z,52.80
2022-11-20T12:25:31.693Z,51.00
2022-11-20T12:26:31.674Z,51.30
2022-11-20T12:27:31.657Z,52.80
2022-11-20T12:28:31.687Z,52.50
2022-11-20T12:29:31.635Z,52.30
2022-11-20T12:30:31.647Z,51.20
2022-11-20T12:31:31.618Z,53.60
2022-11-20T12:32:31.608Z,52.30
2022-11-20T12:33:31.606Z,50.10
2022-11-20T12:34:31.598Z,50.90
2022-11-20T12:35:31.600Z,49.30
2022-11-20T12:36:31.568Z,51.30
2022-11-20T12:37:31.568Z,50.80
2022-11-20T12:38:31.566Z,48.70
2022-11-20T12:39:31.540Z,50.70
2022-11-20T12:40:31.549Z,50.40
2022-11-20T12:41:31.517Z,49.00
2022-11-20T12:42:31.518Z,50.10
2022-11-20T12:43:31.507Z,49.90
2022-11-20T12:44:31.500Z,51.40
2022-11-20T12:45:31.498Z,49.00
2022-11-20T12:46:31.473Z,46.60
2022-11-20T12:47:31.459Z,48.50
2022-11-20T12:48:31.450Z,50.60
2022-11-20T12:49:31.440Z,49.50
2022-11-20T12:50:32.527Z,51.50
2022-11-20T12:51:31.420Z,50.90
2022-11-20T12:52:31.411Z,51.80